createdAt,value
2018-07-21T00:00:54.181Z,0.00
2018-07-21T00:01:54.102Z,0.00
2018-07-21T00:02:54.616Z,0.00
2018-07-21T00:03:54.084Z,0.00
2018-07-21T00:04:54.069Z,0.00
2018-07-21T00:05:54.124Z,0.00
2018-07-21T00:06:54.049Z,0.00
2018-07-21T00:07:54.042Z,0.00
2018-07-21T00:08:54.030Z,0.00
2018-07-21T00:09:54.017Z,0.00
2018-07-21T00:10:54.071Z,0.00
2018-07-21T00:11:53.996Z,0.00
2018-07-21T00:12:53.982Z,0.00
2018-07-21T00:13:53.972Z,0.00
2018-07-21T00:14:53.961Z,0.00
2018-07-21T00:15:54.016Z,0.00
2018-07-21T00:16:53.939Z,0.00
2018-07-21T00:17:53.933Z,0.00
2018-07-21T00:18:53.917Z,0.00
2018-07-21T00:19:53.908Z,0.00
2018-07-21T00:20:53.964Z,0.00
2018-07-21T00:21:54.615Z,0.00
2018-07-21T00:22:53.877Z,0.00
2018-07-21T00:23:54.616Z,0.00
2018-07-21T00:24:53.853Z,0.00
2018-07-21T00:25:53.908Z,0.00
2018-07-21T00:26:53.833Z,0.00
2018-07-21T00:27:53.820Z,0.00
2018-07-21T00:28:53.809Z,0.00
2018-07-21T00:29:53.800Z,0.00
2018-07-21T00:30:53.861Z,0.00
2018-07-21T00:31:53.781Z,0.00
2018-07-21T00:32:53.767Z,0.00
2018-07-21T00:33:53.756Z,0.00
2018-07-21T00:34:53.761Z,0.00
2018-07-21T00:35:53.740Z,0.00
2018-07-21T00:36:53.789Z,0.00
2018-07-21T00:37:53.714Z,0.00
2018-07-21T00:38:53.704Z,0.00
2018-07-21T00:39:53.692Z,0.00
2018-07-21T00:40:53.681Z,0.00
2018-07-21T00:41:53.737Z,0.00
2018-07-21T00:42:53.657Z,0.00
2018-07-21T00:43:53.648Z,0.00
2018-07-21T00:44:54.617Z,0.00
2018-07-21T00:45:53.628Z,0.00
2018-07-21T00:46:53.681Z,0.00
2018-07-21T00:47:53.604Z,0.00
2018-07-21T00:48:53.595Z,0.00
2018-07-21T00:49:53.584Z,0.00
2018-07-21T00:50:53.576Z,0.00
2018-07-21T00:51:53.628Z,0.00
2018-07-21T00:52:53.551Z,0.00
2018-07-21T00:53:53.541Z,0.00
2018-07-21T00:54:53.537Z,0.00
2018-07-21T00:55:53.518Z,0.00
2018-07-21T00:56:53.576Z,0.00
2018-07-21T00:57:53.499Z,0.00
2018-07-21T00:58:53.488Z,0.00
2018-07-21T00:59:53.476Z,0.00
2018-07-21T01:00:53.468Z,0.00
2018-07-21T01:01:53.523Z,0.00
2018-07-21T01:02:53.443Z,0.00
2018-07-21T01:03:53.443Z,0.00
2018-07-21T01:04:53.425Z,0.00
2018-07-21T01:05:54.115Z,0.00
2018-07-21T01:06:53.466Z,0.00
2018-07-21T01:07:53.393Z,0.00
2018-07-21T01:08:53.381Z,0.00
2018-07-21T01:09:53.368Z,0.00
2018-07-21T01:10:53.357Z,0.00
2018-07-21T01:11:53.415Z,0.00
2018-07-21T01:12:53.342Z,0.00
2018-07-21T01:13:53.324Z,0.00
2018-07-21T01:14:53.316Z,0.00
2018-07-21T01:15:53.302Z,0.00
2018-07-21T01:16:53.360Z,0.00
2018-07-21T01:17:53.285Z,0.00
2018-07-21T01:18:53.270Z,0.00
2018-07-21T01:19:53.261Z,0.00
2018-07-21T01:20:53.250Z,0.00
2018-07-21T01:21:53.305Z,0.00
2018-07-21T01:22:53.228Z,0.00
2018-07-21T01:23:53.217Z,0.00
2018-07-21T01:24:53.206Z,0.00
2018-07-21T01:25:53.195Z,0.00
2018-07-21T01:26:53.689Z,0.00
2018-07-21T01:27:53.175Z,0.00
2018-07-21T01:28:53.164Z,0.00
2018-07-21T01:29:53.156Z,0.00
2018-07-21T01:30:53.142Z,0.00
2018-07-21T01:31:53.197Z,0.00
2018-07-21T01:32:53.120Z,0.00
2018-07-21T01:33:53.109Z,0.00
2018-07-21T01:34:53.095Z,0.00
2018-07-21T01:35:53.088Z,0.00
2018-07-21T01:36:53.142Z,0.00
2018-07-21T01:37:53.064Z,0.00
2018-07-21T01:38:53.057Z,0.00
2018-07-21T01:39:53.046Z,0.00
2018-07-21T01:40:53.032Z,0.00
2018-07-21T01:41:53.089Z,0.00
2018-07-21T01:42:53.012Z,0.00
2018-07-21T01:43:53.004Z,0.00
2018-07-21T01:44:52.990Z,0.00
2018-07-21T01:45:52.981Z,0.00
2018-07-21T01:46:53.034Z,0.00
2018-07-21T01:47:53.616Z,0.00
2018-07-21T01:48:52.949Z,0.00
2018-07-21T01:49:52.935Z,0.00
2018-07-21T01:50:52.926Z,0.00
2018-07-21T01:51:52.985Z,0.00
2018-07-21T01:52:52.907Z,0.00
2018-07-21T01:53:52.894Z,0.00
2018-07-21T01:54:52.882Z,0.00
2018-07-21T01:55:52.871Z,0.00
2018-07-21T01:56:52.926Z,0.00
2018-07-21T01:57:52.849Z,0.00
2018-07-21T01:58:52.841Z,0.00
2018-07-21T01:59:52.827Z,0.00
2018-07-21T02:00:52.816Z,0.00
2018-07-21T02:01:52.871Z,0.00
2018-07-21T02:02:52.791Z,0.00
2018-07-21T02:03:52.783Z,0.00
2018-07-21T02:04:52.780Z,0.00
2018-07-21T02:05:52.769Z,0.00
2018-07-21T02:06:52.816Z,0.00
2018-07-21T02:07:52.744Z,0.00
2018-07-21T02:08:53.610Z,0.00
2018-07-21T02:09:52.719Z,0.00
2018-07-21T02:10:52.708Z,0.00
2018-07-21T02:11:52.766Z,0.00
2018-07-21T02:12:52.686Z,0.00
2018-07-21T02:13:52.679Z,0.00
2018-07-21T02:14:52.666Z,0.00
2018-07-21T02:15:52.656Z,0.00
2018-07-21T02:16:52.716Z,0.00
2018-07-21T02:17:52.631Z,0.00
2018-07-21T02:19:00.761Z,0.00
2018-07-21T02:20:00.761Z,0.00
2018-07-21T02:20:52.600Z,0.00
2018-07-21T02:21:52.595Z,0.00
2018-07-21T02:22:52.778Z,0.00
2018-07-21T02:23:52.610Z,0.00
2018-07-21T02:25:00.689Z,0.00
2018-07-21T02:29:50.174Z,0.00
2018-07-21T02:30:50.125Z,0.00
2018-07-21T02:31:50.083Z,0.00
2018-07-21T02:32:50.140Z,0.00
2018-07-21T02:33:50.064Z,0.00
2018-07-21T02:34:50.058Z,0.00
2018-07-21T02:35:50.039Z,0.00
2018-07-21T02:36:50.033Z,0.00
2018-07-21T02:37:50.086Z,0.00
2018-07-21T02:38:50.006Z,0.00
2018-07-21T02:39:49.994Z,0.00
2018-07-21T02:40:49.985Z,0.00
2018-07-21T02:41:49.980Z,0.00
2018-07-21T02:42:50.030Z,0.00
2018-07-21T02:43:50.706Z,0.00
2018-07-21T02:44:49.947Z,0.00
2018-07-21T02:45:49.933Z,0.00
2018-07-21T02:46:49.922Z,0.00
2018-07-21T02:47:49.975Z,0.00
2018-07-21T02:48:49.898Z,0.00
2018-07-21T02:49:50.706Z,0.00
2018-07-21T02:50:49.881Z,0.00
2018-07-21T02:51:49.865Z,0.00
2018-07-21T02:52:49.924Z,0.00
2018-07-21T02:53:49.847Z,0.00
2018-07-21T02:54:49.842Z,0.00
2018-07-21T02:55:49.825Z,0.00
2018-07-21T02:56:49.825Z,0.00
2018-07-21T02:57:49.874Z,0.00
2018-07-21T02:58:49.796Z,0.00
2018-07-21T02:59:49.783Z,0.00
2018-07-21T03:00:49.772Z,0.00
2018-07-21T03:01:49.761Z,0.00
2018-07-21T03:02:49.817Z,0.00
2018-07-21T03:03:49.739Z,0.00
2018-07-21T03:04:49.729Z,0.00
2018-07-21T03:05:49.720Z,0.00
2018-07-21T03:06:49.709Z,4.00
2018-07-21T03:07:49.764Z,4.00
2018-07-21T03:08:49.684Z,4.00
2018-07-21T03:09:49.744Z,4.00
2018-07-21T03:10:50.202Z,4.00
2018-07-21T03:11:49.651Z,4.00
2018-07-21T03:12:49.711Z,4.00
2018-07-21T03:13:49.629Z,8.00
2018-07-21T03:14:49.621Z,4.00
2018-07-21T03:15:49.612Z,8.00
2018-07-21T03:16:49.598Z,8.00
2018-07-21T03:17:49.657Z,8.00
2018-07-21T03:18:49.579Z,8.00
2018-07-21T03:19:49.565Z,12.00
2018-07-21T03:20:49.554Z,12.00
2018-07-21T03:21:49.543Z,16.00
2018-07-21T03:22:49.609Z,16.00
2018-07-21T03:23:49.523Z,20.00
2018-07-21T03:24:49.512Z,24.00
2018-07-21T03:25:49.501Z,28.00
2018-07-21T03:26:49.490Z,28.00
2018-07-21T03:27:49.545Z,36.00
2018-07-21T03:28:49.474Z,40.00
2018-07-21T03:29:49.459Z,44.00
2018-07-21T03:30:49.455Z,48.00
2018-07-21T03:31:50.200Z,52.00
2018-07-21T03:32:49.485Z,60.00
2018-07-21T03:33:49.415Z,68.00
2018-07-21T03:34:49.406Z,76.00
2018-07-21T03:35:49.393Z,80.00
2018-07-21T03:36:49.387Z,92.00
2018-07-21T03:37:49.437Z,100.00
2018-07-21T03:38:49.360Z,112.00
2018-07-21T03:39:49.351Z,120.00
2018-07-21T03:40:49.340Z,128.00
2018-07-21T03:41:49.324Z,136.00
2018-07-21T03:42:49.382Z,148.00
2018-07-21T03:43:49.307Z,156.00
2018-07-21T03:44:49.296Z,164.00
2018-07-21T03:45:49.283Z,176.00
2018-07-21T03:46:49.271Z,188.00
2018-07-21T03:47:49.329Z,200.00
2018-07-21T03:48:49.270Z,212.00
2018-07-21T03:49:49.241Z,224.00
2018-07-21T03:50:49.230Z,244.00
2018-07-21T03:51:49.221Z,260.00
2018-07-21T03:52:49.775Z,276.00
2018-07-21T03:53:57.263Z,284.00
2018-07-21T03:54:49.185Z,296.00
2018-07-21T03:55:57.779Z,312.00
2018-07-21T03:56:49.163Z,324.00
2018-07-21T03:57:56.739Z,340.00
2018-07-21T03:58:49.147Z,360.00
2018-07-21T03:59:57.716Z,384.00
2018-07-21T04:00:49.120Z,404.00
2018-07-21T04:01:49.112Z,420.00
2018-07-21T04:02:56.706Z,436.00
2018-07-21T04:03:49.089Z,444.00
2018-07-21T04:04:49.075Z,464.00
2018-07-21T04:05:49.069Z,488.00
2018-07-21T04:06:49.056Z,508.00
2018-07-21T04:07:49.050Z,540.00
2018-07-21T04:08:57.274Z,568.00
2018-07-21T04:09:57.168Z,596.00
2018-07-21T04:10:49.020Z,628.00
2018-07-21T04:11:49.006Z,660.00
2018-07-21T04:12:48.991Z,696.00
2018-07-21T04:13:49.045Z,736.00
2018-07-21T04:14:48.968Z,776.00
2018-07-21T04:15:48.959Z,812.00
2018-07-21T04:16:48.946Z,836.00
2018-07-21T04:17:48.935Z,852.00
2018-07-21T04:18:48.992Z,868.00
2018-07-21T04:19:48.915Z,888.00
2018-07-21T04:20:48.910Z,916.00
2018-07-21T04:21:48.890Z,940.00
2018-07-21T04:22:48.884Z,972.00
2018-07-21T04:23:48.934Z,988.00
2018-07-21T04:24:48.857Z,1004.00
2018-07-21T04:25:48.849Z,1024.00
2018-07-21T04:26:48.838Z,1040.00
2018-07-21T04:27:48.827Z,1056.00
2018-07-21T04:28:48.882Z,1076.00
2018-07-21T04:29:48.804Z,1104.00
2018-07-21T04:30:49.451Z,1136.00
2018-07-21T04:31:48.801Z,1176.00
2018-07-21T04:32:48.771Z,1200.00
2018-07-21T04:33:48.826Z,1232.00
2018-07-21T04:34:48.749Z,1264.00
2018-07-21T04:35:48.738Z,1304.00
2018-07-21T04:36:48.729Z,1336.00
2018-07-21T04:37:48.721Z,1348.00
2018-07-21T04:38:48.771Z,1340.00
2018-07-21T04:39:48.701Z,1328.00
2018-07-21T04:40:48.683Z,1328.00
2018-07-21T04:41:48.671Z,1320.00
2018-07-21T04:42:48.661Z,1320.00
2018-07-21T04:43:48.716Z,1332.00
2018-07-21T04:44:48.638Z,1340.00
2018-07-21T04:45:48.628Z,1348.00
2018-07-21T04:46:48.616Z,1352.00
2018-07-21T04:47:48.607Z,1360.00
2018-07-21T04:48:48.660Z,1368.00
2018-07-21T04:49:48.583Z,1364.00
2018-07-21T04:50:48.572Z,1356.00
2018-07-21T04:51:49.454Z,1356.00
2018-07-21T04:52:48.550Z,1352.00
2018-07-21T04:53:48.610Z,1332.00
2018-07-21T04:54:48.533Z,1308.00
2018-07-21T04:55:48.519Z,1288.00
2018-07-21T04:56:48.508Z,1268.00
2018-07-21T04:57:48.498Z,1252.00
2018-07-21T04:58:48.550Z,1236.00
2018-07-21T04:59:48.478Z,1220.00
2018-07-21T05:00:48.506Z,1196.00
2018-07-21T05:01:48.457Z,1184.00
2018-07-21T05:02:48.439Z,1180.00
2018-07-21T05:03:48.494Z,1172.00
2018-07-21T05:04:48.947Z,1168.00
2018-07-21T05:05:48.408Z,1164.00
2018-07-21T05:06:48.403Z,1156.00
2018-07-21T05:07:48.394Z,1168.00
2018-07-21T05:08:48.442Z,1184.00
2018-07-21T05:09:48.364Z,1216.00
2018-07-21T05:10:48.356Z,1248.00
2018-07-21T05:11:48.345Z,1288.00
2018-07-21T05:12:48.949Z,1332.00
2018-07-21T05:13:48.386Z,1388.00
2018-07-21T05:14:48.309Z,1456.00
2018-07-21T05:15:48.300Z,1520.00
2018-07-21T05:16:48.292Z,1572.00
2018-07-21T05:17:48.281Z,1616.00
2018-07-21T05:18:48.334Z,1668.00
2018-07-21T05:19:48.296Z,1724.00
2018-07-21T05:20:48.245Z,1796.00
2018-07-21T05:21:48.234Z,1888.00
2018-07-21T05:22:48.223Z,1984.00
2018-07-21T05:23:48.281Z,2084.00
2018-07-21T05:24:48.201Z,2192.00
2018-07-21T05:25:48.190Z,2292.00
2018-07-21T05:26:48.179Z,2388.00
2018-07-21T05:27:48.166Z,2436.00
2018-07-21T05:28:48.223Z,2452.00
2018-07-21T05:29:48.146Z,2472.00
2018-07-21T05:30:48.135Z,2480.00
2018-07-21T05:31:48.124Z,2484.00
2018-07-21T05:32:48.113Z,2484.00
2018-07-21T05:33:48.523Z,2476.00
2018-07-21T05:34:48.093Z,2492.00
2018-07-21T05:35:48.082Z,2544.00
2018-07-21T05:36:48.069Z,2592.00
2018-07-21T05:37:48.063Z,2628.00
2018-07-21T05:38:48.126Z,2644.00
2018-07-21T05:39:48.042Z,2664.00
2018-07-21T05:40:48.033Z,2716.00
2018-07-21T05:41:48.016Z,2784.00
2018-07-21T05:42:48.005Z,2864.00
2018-07-21T05:43:47.994Z,2952.00
2018-07-21T05:44:48.055Z,3052.00
2018-07-21T05:45:47.972Z,3180.00
2018-07-21T05:46:47.961Z,3308.00
2018-07-21T05:47:47.958Z,3436.00
2018-07-21T05:48:47.943Z,3604.00
2018-07-21T05:49:47.998Z,3788.00
2018-07-21T05:50:47.922Z,3988.00
2018-07-21T05:51:47.911Z,4208.00
2018-07-21T05:52:47.902Z,4456.00
2018-07-21T05:53:47.892Z,4728.00
2018-07-21T05:54:48.028Z,5016.00
2018-07-21T05:55:47.873Z,5272.00
2018-07-21T05:56:47.856Z,5500.00
2018-07-21T05:57:47.843Z,5732.00
2018-07-21T05:58:47.833Z,6012.00
2018-07-21T05:59:47.891Z,6328.00
2018-07-21T06:00:47.809Z,6624.00
2018-07-21T06:01:47.803Z,6904.00
2018-07-21T06:02:47.852Z,7204.00
2018-07-21T06:03:47.781Z,7508.00
2018-07-21T06:04:47.840Z,7756.00
2018-07-21T06:05:47.769Z,7988.00
2018-07-21T06:06:47.748Z,8200.00
2018-07-21T06:07:47.743Z,8484.00
2018-07-21T06:08:55.933Z,8796.00
2018-07-21T06:09:55.854Z,9000.00
2018-07-21T06:10:56.595Z,8992.00
2018-07-21T06:11:55.234Z,9088.00
2018-07-21T06:12:47.689Z,9232.00
2018-07-21T06:13:47.673Z,9152.00
2018-07-21T06:14:47.726Z,9032.00
2018-07-21T06:15:47.654Z,8956.00
2018-07-21T06:16:55.786Z,8884.00
2018-07-21T06:17:55.744Z,8764.00
2018-07-21T06:18:55.754Z,8700.00
2018-07-21T06:19:55.815Z,8736.00
2018-07-21T06:20:55.663Z,8856.00
2018-07-21T06:21:55.112Z,9056.00
2018-07-21T06:22:47.577Z,9352.00
2018-07-21T06:23:47.610Z,9732.00
2018-07-21T06:24:47.615Z,10004.00
2018-07-21T06:25:47.543Z,10188.00
2018-07-21T06:26:47.530Z,10348.00
2018-07-21T06:27:47.527Z,10472.00
2018-07-21T06:28:47.510Z,10608.00
2018-07-21T06:29:47.566Z,10796.00
2018-07-21T06:30:47.488Z,11036.00
2018-07-21T06:31:47.477Z,11212.00
2018-07-21T06:32:47.479Z,11528.00
2018-07-21T06:33:47.455Z,11944.00
2018-07-21T06:34:47.510Z,12416.00
2018-07-21T06:35:47.440Z,13052.00
2018-07-21T06:36:47.427Z,14252.00
2018-07-21T06:37:47.411Z,15064.00
2018-07-21T06:38:47.403Z,17152.00
2018-07-21T06:39:47.457Z,21472.00
2018-07-21T06:40:47.383Z,20768.00
2018-07-21T06:41:47.372Z,20576.00
2018-07-21T06:42:48.294Z,16960.00
2018-07-21T06:43:47.358Z,20512.00
2018-07-21T06:44:47.410Z,20128.00
2018-07-21T06:45:47.328Z,19552.00
2018-07-21T06:46:47.319Z,23424.00
2018-07-21T06:47:47.308Z,24064.00
2018-07-21T06:48:47.297Z,23136.00
2018-07-21T06:49:47.350Z,21024.00
2018-07-21T06:50:47.273Z,22560.00
2018-07-21T06:51:47.271Z,25120.00
2018-07-21T06:52:47.250Z,28928.00
2018-07-21T06:53:47.250Z,23744.00
2018-07-21T06:54:47.297Z,21760.00
2018-07-21T06:55:47.220Z,23712.00
2018-07-21T06:56:47.209Z,27616.00
2018-07-21T06:57:47.200Z,26464.00
2018-07-21T06:58:47.187Z,22496.00
2018-07-21T06:59:47.254Z,25792.00
2018-07-21T07:00:47.165Z,32160.00
2018-07-21T07:01:47.161Z,37472.00
2018-07-21T07:02:47.147Z,44448.00
2018-07-21T07:03:47.802Z,48544.00
2018-07-21T07:04:47.267Z,45344.00
2018-07-21T07:05:47.115Z,46336.00
2018-07-21T07:06:47.104Z,48416.00
2018-07-21T07:07:47.097Z,46432.00
2018-07-21T07:08:47.088Z,46848.00
2018-07-21T07:09:47.131Z,49664.00
2018-07-21T07:10:47.061Z,40544.00
2018-07-21T07:11:47.054Z,40288.00
2018-07-21T07:12:47.045Z,38464.00
2018-07-21T07:13:47.034Z,40416.00
2018-07-21T07:14:47.084Z,39232.00
2018-07-21T07:15:47.009Z,41280.00
2018-07-21T07:16:46.998Z,37888.00
2018-07-21T07:17:46.987Z,31168.00
2018-07-21T07:18:46.976Z,29792.00
2018-07-21T07:19:47.058Z,35552.00
2018-07-21T07:20:47.015Z,33280.00
2018-07-21T07:21:46.951Z,38752.00
2018-07-21T07:22:46.934Z,32768.00
2018-07-21T07:23:46.923Z,34240.00
2018-07-21T07:24:47.800Z,36672.00
2018-07-21T07:25:46.962Z,33280.00
2018-07-21T07:26:46.891Z,27072.00
2018-07-21T07:27:46.879Z,25888.00
2018-07-21T07:28:46.873Z,26432.00
2018-07-21T07:29:46.860Z,30944.00
2018-07-21T07:30:46.921Z,34016.00
2018-07-21T07:31:46.843Z,33696.00
2018-07-21T07:32:46.832Z,31424.00
2018-07-21T07:33:46.818Z,29952.00
2018-07-21T07:34:46.810Z,32032.00
2018-07-21T07:35:46.869Z,33504.00
2018-07-21T07:36:46.787Z,32352.00
2018-07-21T07:37:46.781Z,32832.00
2018-07-21T07:38:46.768Z,31488.00
2018-07-21T07:39:46.754Z,28224.00
2018-07-21T07:40:46.818Z,27392.00
2018-07-21T07:41:46.739Z,31712.00
2018-07-21T07:42:46.727Z,35936.00
2018-07-21T07:43:46.722Z,43712.00
2018-07-21T07:44:46.708Z,43840.00
2018-07-21T07:45:47.364Z,54368.00
2018-07-21T07:46:46.687Z,59616.00
2018-07-21T07:47:46.674Z,45568.00
2018-07-21T07:48:46.666Z,54240.00
2018-07-21T07:49:46.655Z,47904.00
2018-07-21T07:50:46.713Z,49248.00
2018-07-21T07:51:46.633Z,51712.00
2018-07-21T07:52:46.626Z,66016.00
2018-07-21T07:53:46.617Z,60896.00
2018-07-21T07:54:46.605Z,54432.00
2018-07-21T07:55:46.664Z,47360.00
2018-07-21T07:56:46.593Z,46336.00
2018-07-21T07:57:46.574Z,43744.00
2018-07-21T07:58:46.563Z,44736.00
2018-07-21T07:59:46.555Z,49888.00
2018-07-21T08:00:46.608Z,47808.00
2018-07-21T08:01:46.533Z,47392.00
2018-07-21T08:02:46.525Z,40544.00
2018-07-21T08:03:46.519Z,33824.00
2018-07-21T08:04:46.506Z,47168.00
2018-07-21T08:05:46.563Z,35744.00
2018-07-21T08:06:47.304Z,43520.00
2018-07-21T08:07:46.472Z,55136.00
2018-07-21T08:08:46.472Z,52384.00
2018-07-21T08:09:46.455Z,35648.00
2018-07-21T08:10:46.513Z,46240.00
2018-07-21T08:11:46.435Z,43296.00
2018-07-21T08:12:46.427Z,42560.00
2018-07-21T08:13:46.414Z,49120.00
2018-07-21T08:14:46.406Z,55296.00
2018-07-21T08:15:46.464Z,64000.00
2018-07-21T08:16:46.386Z,50400.00
2018-07-21T08:17:46.377Z,41408.00
2018-07-21T08:18:46.372Z,59488.00
2018-07-21T08:19:46.358Z,69568.00
2018-07-21T08:20:46.411Z,69120.00
2018-07-21T08:21:46.340Z,69184.00
2018-07-21T08:22:46.325Z,68192.00
2018-07-21T08:23:46.314Z,56160.00
2018-07-21T08:24:46.308Z,67072.00
2018-07-21T08:25:46.367Z,46880.00
2018-07-21T08:26:46.289Z,52928.00
2018-07-21T08:27:46.800Z,55776.00
2018-07-21T08:28:46.269Z,64352.00
2018-07-21T08:29:46.261Z,77888.00
2018-07-21T08:30:46.322Z,77408.00
2018-07-21T08:31:46.244Z,75904.00
2018-07-21T08:32:46.230Z,77920.00
2018-07-21T08:33:46.219Z,80608.00
2018-07-21T08:34:46.281Z,79584.00
2018-07-21T08:35:46.272Z,78208.00
2018-07-21T08:36:46.195Z,79904.00
2018-07-21T08:37:46.183Z,80640.00
2018-07-21T08:38:46.178Z,79200.00
2018-07-21T08:39:46.166Z,80128.00
2018-07-21T08:40:46.224Z,79424.00
2018-07-21T08:41:46.147Z,79744.00
2018-07-21T08:42:46.139Z,79744.00
2018-07-21T08:43:46.133Z,83072.00
2018-07-21T08:44:46.122Z,47392.00
2018-07-21T08:45:46.180Z,59264.00
2018-07-21T08:46:46.105Z,68288.00
2018-07-21T08:47:46.094Z,55520.00
2018-07-21T08:48:46.801Z,43616.00
2018-07-21T08:49:46.087Z,62272.00
2018-07-21T08:50:46.132Z,49728.00
2018-07-21T08:51:46.068Z,50240.00
2018-07-21T08:52:46.049Z,44832.00
2018-07-21T08:53:46.038Z,43488.00
2018-07-21T08:54:46.030Z,47296.00
2018-07-21T08:55:46.163Z,58880.00
2018-07-21T08:56:46.011Z,49664.00
2018-07-21T08:57:46.005Z,61600.00
2018-07-21T08:58:45.994Z,55968.00
2018-07-21T08:59:45.985Z,76992.00
2018-07-21T09:00:46.041Z,59136.00
2018-07-21T09:01:45.966Z,37696.00
2018-07-21T09:02:45.968Z,31936.00
2018-07-21T09:03:45.947Z,47424.00
2018-07-21T09:04:45.935Z,37664.00
2018-07-21T09:05:46.028Z,25312.00
2018-07-21T09:06:45.919Z,25088.00
2018-07-21T09:07:45.910Z,26240.00
2018-07-21T09:08:53.431Z,27840.00
2018-07-21T09:09:45.893Z,30432.00
2018-07-21T09:10:45.886Z,32224.00
2018-07-21T09:11:45.943Z,38336.00
2018-07-21T09:12:45.863Z,40480.00
2018-07-21T09:13:45.856Z,34240.00
2018-07-21T09:14:45.841Z,67136.00
2018-07-21T09:15:45.835Z,34336.00
2018-07-21T09:16:45.896Z,37184.00
2018-07-21T09:17:45.813Z,33248.00
2018-07-21T09:18:45.805Z,30976.00
2018-07-21T09:19:45.794Z,79392.00
2018-07-21T09:20:45.785Z,99648.00
2018-07-21T09:21:45.846Z,38112.00
2018-07-21T09:22:45.769Z,58848.00
2018-07-21T09:23:45.758Z,35840.00
2018-07-21T09:24:45.746Z,56704.00
2018-07-21T09:25:45.741Z,44608.00
2018-07-21T09:26:45.807Z,46144.00
2018-07-21T09:27:45.726Z,65504.00
2018-07-21T09:28:45.710Z,42432.00
2018-07-21T09:29:46.351Z,49088.00
2018-07-21T09:30:45.691Z,83136.00
2018-07-21T09:31:45.746Z,97888.00
2018-07-21T09:32:45.680Z,54560.00
2018-07-21T09:33:45.664Z,94048.00
2018-07-21T09:34:45.663Z,74560.00
2018-07-21T09:35:45.644Z,75392.00
2018-07-21T09:36:45.699Z,60576.00
2018-07-21T09:37:45.635Z,77888.00
2018-07-21T09:38:45.621Z,49024.00
2018-07-21T09:39:45.607Z,71200.00
2018-07-21T09:40:45.599Z,52608.00
2018-07-21T09:41:45.659Z,71456.00
2018-07-21T09:42:45.585Z,71712.00
2018-07-21T09:43:45.574Z,80960.00
2018-07-21T09:44:45.565Z,53440.00
2018-07-21T09:45:45.554Z,65408.00
2018-07-21T09:46:45.609Z,104672.00
2018-07-21T09:47:45.537Z,50624.00
2018-07-21T09:48:45.532Z,85728.00
2018-07-21T09:49:45.518Z,93728.00
2018-07-21T09:50:46.353Z,97792.00
2018-07-21T09:51:45.572Z,113312.00
2018-07-21T09:52:45.493Z,113824.00
2018-07-21T09:53:45.491Z,103072.00
2018-07-21T09:54:45.476Z,101696.00
2018-07-21T09:55:45.508Z,102688.00
2018-07-21T09:56:45.525Z,105568.00
2018-07-21T09:57:53.584Z,107360.00
2018-07-21T09:58:53.589Z,109504.00
2018-07-21T09:59:45.434Z,109696.00
2018-07-21T10:00:45.432Z,111264.00
2018-07-21T10:01:45.486Z,106304.00
2018-07-21T10:02:45.414Z,93408.00
2018-07-21T10:03:45.411Z,77056.00
2018-07-21T10:04:45.407Z,66144.00
2018-07-21T10:05:53.533Z,66080.00
2018-07-21T10:06:53.609Z,71008.00
2018-07-21T10:08:00.509Z,77760.00
2018-07-21T10:08:52.886Z,85472.00
2018-07-21T10:09:53.459Z,93632.00
2018-07-21T10:10:45.347Z,96608.00
2018-07-21T10:11:45.408Z,103968.00
2018-07-21T10:12:45.330Z,103008.00
2018-07-21T10:13:45.324Z,103552.00
2018-07-21T10:14:45.316Z,106752.00
2018-07-21T10:15:45.319Z,105792.00
2018-07-21T10:16:45.365Z,105856.00
2018-07-21T10:17:45.297Z,103008.00
2018-07-21T10:18:45.292Z,102112.00
2018-07-21T10:19:45.285Z,102592.00
2018-07-21T10:20:45.271Z,103712.00
2018-07-21T10:21:45.384Z,104032.00
2018-07-21T10:22:45.257Z,102912.00
2018-07-21T10:23:45.252Z,103168.00
2018-07-21T10:24:45.246Z,98176.00
2018-07-21T10:25:45.237Z,100224.00
2018-07-21T10:26:45.650Z,98304.00
2018-07-21T10:27:45.217Z,100544.00
2018-07-21T10:28:45.215Z,79488.00
2018-07-21T10:29:45.207Z,79360.00
2018-07-21T10:30:46.070Z,73824.00
2018-07-21T10:31:45.264Z,81728.00
2018-07-21T10:32:45.184Z,87840.00
2018-07-21T10:33:45.181Z,90592.00
2018-07-21T10:34:45.167Z,96448.00
2018-07-21T10:35:45.161Z,101440.00
2018-07-21T10:36:45.224Z,103840.00
2018-07-21T10:37:45.144Z,102944.00
2018-07-21T10:38:45.142Z,99648.00
2018-07-21T10:39:45.131Z,95040.00
2018-07-21T10:40:45.125Z,98208.00
2018-07-21T10:41:45.187Z,97184.00
2018-07-21T10:42:45.114Z,103712.00
2018-07-21T10:43:45.102Z,100288.00
2018-07-21T10:44:45.139Z,99776.00
2018-07-21T10:45:45.091Z,99104.00
2018-07-21T10:46:45.159Z,99936.00
2018-07-21T10:47:45.074Z,98528.00
2018-07-21T10:48:45.134Z,97600.00
2018-07-21T10:49:45.072Z,98272.00
2018-07-21T10:50:45.074Z,94816.00
2018-07-21T10:51:45.565Z,98400.00
2018-07-21T10:52:45.109Z,97248.00
2018-07-21T10:53:45.045Z,96864.00
2018-07-21T10:54:45.029Z,97088.00
2018-07-21T10:55:45.026Z,95008.00
2018-07-21T10:56:45.017Z,93280.00
2018-07-21T10:57:45.075Z,92960.00
2018-07-21T10:58:45.000Z,92256.00
2018-07-21T10:59:44.995Z,93152.00
2018-07-21T11:00:44.986Z,93376.00
2018-07-21T11:01:44.980Z,96800.00
2018-07-21T11:02:45.042Z,96288.00
2018-07-21T11:03:44.975Z,96096.00
2018-07-21T11:04:44.966Z,94368.00
2018-07-21T11:05:44.957Z,94848.00
2018-07-21T11:06:44.946Z,89632.00
2018-07-21T11:07:45.007Z,90784.00
2018-07-21T11:08:44.932Z,87520.00
2018-07-21T11:09:44.930Z,89024.00
2018-07-21T11:10:44.924Z,93312.00
2018-07-21T11:11:44.915Z,94752.00
2018-07-21T11:12:45.141Z,93760.00
2018-07-21T11:13:44.904Z,95392.00
2018-07-21T11:14:44.898Z,92992.00
2018-07-21T11:15:44.892Z,94208.00
2018-07-21T11:16:44.883Z,92384.00
2018-07-21T11:17:44.947Z,94976.00
2018-07-21T11:18:44.870Z,92928.00
2018-07-21T11:19:44.872Z,94304.00
2018-07-21T11:20:44.864Z,93376.00
2018-07-21T11:21:44.854Z,94240.00
2018-07-21T11:22:44.913Z,92608.00
2018-07-21T11:23:44.841Z,93440.00
2018-07-21T11:24:44.835Z,93952.00
2018-07-21T11:25:44.829Z,93696.00
2018-07-21T11:26:44.822Z,91520.00
2018-07-21T11:27:44.882Z,92672.00
2018-07-21T11:28:44.818Z,95616.00
2018-07-21T11:29:44.804Z,95616.00
2018-07-21T11:30:44.798Z,95552.00
2018-07-21T11:31:44.792Z,92736.00
2018-07-21T11:32:44.851Z,89888.00
2018-07-21T11:33:45.549Z,93024.00
2018-07-21T11:34:44.772Z,93952.00
2018-07-21T11:35:44.943Z,92512.00
2018-07-21T11:36:44.777Z,95808.00
2018-07-21T11:37:44.821Z,97440.00
2018-07-21T11:38:44.753Z,96544.00
2018-07-21T11:39:44.741Z,97856.00
2018-07-21T11:40:44.735Z,98752.00
2018-07-21T11:41:44.727Z,96128.00
2018-07-21T11:42:44.790Z,95328.00
2018-07-21T11:43:44.713Z,95360.00
2018-07-21T11:44:44.713Z,99264.00
2018-07-21T11:45:44.701Z,97280.00
2018-07-21T11:46:44.695Z,93472.00
2018-07-21T11:47:44.756Z,104160.00
2018-07-21T11:48:44.692Z,101248.00
2018-07-21T11:49:44.679Z,92480.00
2018-07-21T11:50:44.670Z,103136.00
2018-07-21T11:51:44.667Z,103360.00
2018-07-21T11:52:44.727Z,92768.00
2018-07-21T11:53:44.651Z,105568.00
2018-07-21T11:54:45.534Z,100928.00
2018-07-21T11:55:44.646Z,94656.00
2018-07-21T11:56:44.634Z,102528.00
2018-07-21T11:57:44.697Z,96320.00
2018-07-21T11:58:44.619Z,98688.00
2018-07-21T11:59:44.621Z,100000.00
2018-07-21T12:00:44.608Z,94656.00
2018-07-21T12:01:44.604Z,100096.00
2018-07-21T12:02:44.664Z,99392.00
2018-07-21T12:03:44.589Z,101216.00
2018-07-21T12:04:44.579Z,100288.00
2018-07-21T12:05:44.651Z,101984.00
2018-07-21T12:06:44.583Z,102240.00
2018-07-21T12:07:44.628Z,101184.00
2018-07-21T12:08:44.560Z,103264.00
2018-07-21T12:09:44.547Z,103200.00
2018-07-21T12:10:44.544Z,102688.00
2018-07-21T12:11:44.538Z,103200.00
2018-07-21T12:12:44.597Z,99392.00
2018-07-21T12:13:44.525Z,95680.00
2018-07-21T12:14:44.518Z,99392.00
2018-07-21T12:15:45.028Z,89440.00
2018-07-21T12:16:44.504Z,86112.00
2018-07-21T12:17:44.560Z,93952.00